sensor_id;sensor_type;location;lat;lon;timestamp;pressure;altitude;pressure_sealevel;temperature;humidity
6134;BME280;3098;42.678;23.364;2023-02-04T00:00:06;94745.56;;;0.67;100.00
6134;BME280;3098;42.678;23.364;2023-02-04T00:02:34;94689.41;;;0.27;100.00
6134;BME280;3098;42.678;23.364;2023-02-04T00:05:02;94733.72;;;0.54;100.00
6134;BME280;3098;42.678;23.364;2023-02-04T00:07:30;94738.41;;;0.52;100.00
6134;BME280;3098;42.678;23.364;2023-02-04T00:09:57;94736.09;;;0.55;100.00
6134;BME280;3098;42.678;23.364;2023-02-04T00:12:24;94690.69;;;0.20;100.00
6134;BME280;3098;42.678;23.364;2023-02-04T00:14:51;94705.16;;;0.37;100.00
6134;BME280;3098;42.678;23.364;2023-02-04T00:17:19;94722.75;;;0.52;100.00
6134;BME280;3098;42.678;23.364;2023-02-04T00:19:47;94679.28;;;0.31;100.00
6134;BME280;3098;42.678;23.364;2023-02-04T00:22:14;94706.88;;;0.58;100.00
6134;BME280;3098;42.678;23.364;2023-02-04T00:24:41;94668.25;;;0.24;100.00
6134;BME280;3098;42.678;23.364;2023-02-04T00:27:13;94637.72;;;0.19;100.00
6134;BME280;3098;42.678;23.364;2023-02-04T00:29:40;94705.41;;;0.68;100.00
6134;BME280;3098;42.678;23.364;2023-02-04T00:32:07;94689.28;;;0.44;100.00
6134;BME280;3098;42.678;23.364;2023-02-04T00:34:36;94655.66;;;0.11;100.00
6134;BME280;3098;42.678;23.364;2023-02-04T00:37:03;94670.34;;;0.22;100.00
6134;BME280;3098;42.678;23.364;2023-02-04T00:39:30;94698.41;;;0.41;100.00
6134;BME280;3098;42.678;23.364;2023-02-04T00:41:57;94703.28;;;0.33;100.00
6134;BME280;3098;42.678;23.364;2023-02-04T00:44:24;94701.50;;;0.38;100.00
6134;BME280;3098;42.678;23.364;2023-02-04T00:46:51;94609.69;;;-0.27;100.00
6134;BME280;3098;42.678;23.364;2023-02-04T00:49:18;94696.16;;;0.23;100.00
6134;BME280;3098;42.678;23.364;2023-02-04T00:51:47;94702.75;;;0.31;100.00
6134;BME280;3098;42.678;23.364;2023-02-04T00:54:15;94655.09;;;0.09;100.00
6134;BME280;3098;42.678;23.364;2023-02-04T00:56:42;94691.66;;;0.14;100.00
6134;BME280;3098;42.678;23.364;2023-02-04T00:59:10;94642.19;;;-0.08;100.00
6134;BME280;3098;42.678;23.364;2023-02-04T01:01:37;94693.03;;;0.21;100.00
6134;BME280;3098;42.678;23.364;2023-02-04T01:04:04;94644.25;;;-0.10;100.00
6134;BME280;3098;42.678;23.364;2023-02-04T01:06:32;94674.72;;;0.16;100.00
6134;BME280;3098;42.678;23.364;2023-02-04T01:09:01;94673.97;;;0.21;100.00
6134;BME280;3098;42.678;23.364;2023-02-04T01:11:29;94665.41;;;0.25;100.00
6134;BME280;3098;42.678;23.364;2023-02-04T01:13:56;94607.00;;;-0.06;100.00
6134;BME280;3098;42.678;23.364;2023-02-04T01:16:24;94581.81;;;-0.27;100.00
6134;BME280;3098;42.678;23.364;2023-02-04T01:18:51;94644.28;;;0.27;100.00
6134;BME280;3098;42.678;23.364;2023-02-04T01:21:20;94531.13;;;-0.46;100.00
6134;BME280;3098;42.678;23.364;2023-02-04T01:23:47;94639.78;;;0.17;100.00
6134;BME280;3098;42.678;23.364;2023-02-04T01:26:17;94354.78;;;-1.73;100.00
6134;BME280;3098;42.678;23.364;2023-02-04T01:28:44;94594.88;;;0.10;100.00
6134;BME280;3098;42.678;23.364;2023-02-04T01:31:12;94631.53;;;0.30;100.00
6134;BME280;3098;42.678;23.364;2023-02-04T01:33:39;94599.09;;;0.16;100.00
6134;BME280;3098;42.678;23.364;2023-02-04T01:36:07;94567.63;;;-0.09;100.00
6134;BME280;3098;42.678;23.364;2023-02-04T01:38:34;94626.34;;;0.35;100.00
6134;BME280;3098;42.678;23.364;2023-02-04T01:41:02;94608.59;;;0.32;100.00
6134;BME280;3098;42.678;23.364;2023-02-04T01:43:31;94551.06;;;0.07;100.00
6134;BME280;3098;42.678;23.364;2023-02-04T01:45:59;94597.75;;;0.45;100.00
6134;BME280;3098;42.678;23.364;2023-02-04T01:48:27;94611.22;;;0.37;100.00
6134;BME280;3098;42.678;23.364;2023-02-04T01:51:00;94562.84;;;0.15;100.00
6134;BME280;3098;42.678;23.364;2023-02-04T01:53:28;94595.16;;;0.50;100.00
6134;BME280;3098;42.678;23.364;2023-02-04T01:55:55;94545.13;;;0.17;100.00
6134;BME280;3098;42.678;23.364;2023-02-04T01:58:23;94576.78;;;0.35;100.00
6134;BME280;3098;42.678;23.364;2023-02-04T02:00:52;94559.84;;;0.38;100.00
6134;BME280;3098;42.678;23.364;2023-02-04T02:03:19;94595.16;;;0.50;100.00
6134;BME280;3098;42.678;23.364;2023-02-04T02:05:48;94528.84;;;-0.01;100.00
6134;BME280;3098;42.678;23.364;2023-02-04T02:08:17;94593.78;;;0.43;100.00
6134;BME280;3098;42.678;23.364;2023-02-04T02:10:46;94572.28;;;0.26;100.00
6134;BME280;3098;42.678;23.364;2023-02-04T02:13:16;94554.81;;;0.26;100.00
6134;BME280;3098;42.678;23.364;2023-02-04T02:15:44;94580.03;;;0.57;100.00
6134;BME280;3098;42.678;23.364;2023-02-04T02:18:13;94554.28;;;0.24;100.00
6134;BME280;3098;42.678;23.364;2023-02-04T02:20:42;94571.84;;;0.34;100.00
6134;BME280;3098;42.678;23.364;2023-02-04T02:23:14;94533.31;;;0.04;100.00
6134;BME280;3098;42.678;23.364;2023-02-04T02:25:45;94558.53;;;0.35;100.00
6134;BME280;3098;42.678;23.364;2023-02-04T02:28:15;94563.03;;;0.45;100.00
6134;BME280;3098;42.678;23.364;2023-02-04T02:30:44;94542.38;;;0.38;100.00
6134;BME280;3098;42.678;23.364;2023-02-04T02:33:12;94400.25;;;-0.58;100.00
6134;BME280;3098;42.678;23.364;2023-02-04T02:35:42;94516.00;;;0.35;100.00
6134;BME280;3098;42.678;23.364;2023-02-04T02:38:09;94516.00;;;0.30;100.00
6134;BME280;3098;42.678;23.364;2023-02-04T02:40:37;94502.16;;;0.29;100.00
6134;BME280;3098;42.678;23.364;2023-02-04T02:43:08;94498.50;;;0.25;100.00
6134;BME280;3098;42.678;23.364;2023-02-04T02:45:39;94255.63;;;-1.23;100.00
6134;BME280;3098;42.678;23.364;2023-02-04T02:48:09;94355.47;;;-0.60;100.00
6134;BME280;3098;42.678;23.364;2023-02-04T02:50:36;94411.59;;;-0.37;100.00
6134;BME280;3098;42.678;23.364;2023-02-04T02:53:05;94405.19;;;-0.57;100.00
6134;BME280;3098;42.678;23.364;2023-02-04T02:55:36;94487.72;;;0.12;100.00
6134;BME280;3098;42.678;23.364;2023-02-04T02:58:03;94433.31;;;-0.22;100.00
6134;BME280;3098;42.678;23.364;2023-02-04T03:00:32;94464.09;;;-0.14;100.00
6134;BME280;3098;42.678;23.364;2023-02-04T03:03:02;94496.81;;;0.09;100.00
6134;BME280;3098;42.678;23.364;2023-02-04T03:05:34;94503.44;;;0.22;100.00
6134;BME280;3098;42.678;23.364;2023-02-04T03:08:03;94496.97;;;0.34;100.00
6134;BME280;3098;42.678;23.364;2023-02-04T03:10:31;94488.94;;;0.46;100.00
6134;BME280;3098;42.678;23.364;2023-02-04T03:12:59;94462.78;;;0.31;100.00
6134;BME280;3098;42.678;23.364;2023-02-04T03:15:26;94500.72;;;0.53;100.00
6134;BME280;3098;42.678;23.364;2023-02-04T03:17:55;94431.16;;;0.17;100.00
6134;BME280;3098;42.678;23.364;2023-02-04T03:20:23;94495.75;;;0.57;100.00
6134;BME280;3098;42.678;23.364;2023-02-04T03:22:51;94463.59;;;0.36;100.00
6134;BME280;3098;42.678;23.364;2023-02-04T03:25:19;94483.75;;;0.56;100.00
6134;BME280;3098;42.678;23.364;2023-02-04T03:27:49;94475.63;;;0.47;100.00
6134;BME280;3098;42.678;23.364;2023-02-04T03:30:18;94475.88;;;0.46;100.00
6134;BME280;3098;42.678;23.364;2023-02-04T03:32:45;94429.94;;;0.35;100.00
6134;BME280;3098;42.678;23.364;2023-02-04T03:35:15;94474.63;;;0.58;100.00
6134;BME280;3098;42.678;23.364;2023-02-04T03:37:42;94479.59;;;0.60;100.00
6134;BME280;3098;42.678;23.364;2023-02-04T03:40:10;94482.47;;;0.53;100.00
6134;BME280;3098;42.678;23.364;2023-02-04T03:42:38;94467.81;;;0.42;100.00
6134;BME280;3098;42.678;23.364;2023-02-04T03:45:05;94471.00;;;0.60;100.00
6134;BME280;3098;42.678;23.364;2023-02-04T03:47:32;94467.31;;;0.55;100.00
6134;BME280;3098;42.678;23.364;2023-02-04T03:49:59;94470.22;;;0.64;100.00
6134;BME280;3098;42.678;23.364;2023-02-04T03:52:29;94465.53;;;0.71;100.00
6134;BME280;3098;42.678;23.364;2023-02-04T03:54:56;94406.44;;;0.25;100.00
6134;BME280;3098;42.678;23.364;2023-02-04T03:57:23;94402.03;;;0.35;100.00
6134;BME280;3098;42.678;23.364;2023-02-04T03:59:50;94364.44;;;0.26;100.00
6134;BME280;3098;42.678;23.364;2023-02-04T04:02:17;94384.84;;;0.49;100.00
6134;BME280;3098;42.678;23.364;2023-02-04T04:04:45;94430.88;;;0.96;100.00
6134;BME280;3098;42.678;23.364;2023-02-04T04:07:12;94421.47;;;0.95;100.00
6134;BME280;3098;42.678;23.364;2023-02-04T04:09:41;94208.63;;;-0.34;100.00
6134;BME280;3098;42.678;23.364;2023-02-04T04:12:08;94378.66;;;0.71;100.00
6134;BME280;3098;42.678;23.364;2023-02-04T04:14:36;94177.06;;;-0.57;100.00
6134;BME280;3098;42.678;23.364;2023-02-04T04:17:03;94347.03;;;0.57;100.00
6134;BME280;3098;42.678;23.364;2023-02-04T04:19:30;94297.69;;;0.30;100.00
6134;BME280;3098;42.678;23.364;2023-02-04T04:21:58;94397.72;;;0.91;100.00
6134;BME280;3098;42.678;23.364;2023-02-04T04:24:25;94405.28;;;0.93;100.00
6134;BME280;3098;42.678;23.364;2023-02-04T04:26:54;94388.56;;;0.79;100.00
6134;BME280;3098;42.678;23.364;2023-02-04T04:29:21;94401.63;;;0.89;100.00
6134;BME280;3098;42.678;23.364;2023-02-04T04:31:48;94416.78;;;0.82;100.00
6134;BME280;3098;42.678;23.364;2023-02-04T04:34:15;94420.16;;;0.87;100.00
6134;BME280;3098;42.678;23.364;2023-02-04T04:36:43;94399.53;;;0.71;100.00
6134;BME280;3098;42.678;23.364;2023-02-04T04:39:10;94418.06;;;0.84;100.00
6134;BME280;3098;42.678;23.364;2023-02-04T04:41:37;94391.69;;;0.71;100.00
6134;BME280;3098;42.678;23.364;2023-02-04T04:44:06;94430.63;;;0.92;100.00
6134;BME280;3098;42.678;23.364;2023-02-04T04:46:33;94426.69;;;0.90;100.00
6134;BME280;3098;42.678;23.364;2023-02-04T04:49:00;94388.00;;;0.56;100.00
6134;BME280;3098;42.678;23.364;2023-02-04T04:51:27;94375.16;;;0.40;100.00
6134;BME280;3098;42.678;23.364;2023-02-04T04:53:56;94439.50;;;0.96;100.00
6134;BME280;3098;42.678;23.364;2023-02-04T04:56:24;94440.81;;;0.99;100.00
6134;BME280;3098;42.678;23.364;2023-02-04T04:58:51;94429.81;;;0.87;100.00
6134;BME280;3098;42.678;23.364;2023-02-04T05:01:21;94354.06;;;0.46;100.00
6134;BME280;3098;42.678;23.364;2023-02-04T05:03:48;94439.25;;;1.08;100.00
6134;BME280;3098;42.678;23.364;2023-02-04T05:06:15;94429.84;;;1.12;100.00
6134;BME280;3098;42.678;23.364;2023-02-04T05:08:43;94364.28;;;0.68;100.00
6134;BME280;3098;42.678;23.364;2023-02-04T05:11:10;94429.84;;;1.22;100.00
6134;BME280;3098;42.678;23.364;2023-02-04T05:13:37;94401.63;;;0.89;100.00
6134;BME280;3098;42.678;23.364;2023-02-04T05:16:05;94455.69;;;1.08;100.00
6134;BME280;3098;42.678;23.364;2023-02-04T05:18:34;94385.41;;;0.56;100.00
6134;BME280;3098;42.678;23.364;2023-02-04T05:21:01;94446.78;;;0.89;100.00
6134;BME280;3098;42.678;23.364;2023-02-04T05:23:28;94469.53;;;1.04;100.00
6134;BME280;3098;42.678;23.364;2023-02-04T05:25:55;94451.03;;;1.15;100.00
6134;BME280;3098;42.678;23.364;2023-02-04T05:28:22;94376.75;;;0.46;100.00
6134;BME280;3098;42.678;23.364;2023-02-04T05:30:49;94441.56;;;0.94;100.00
6134;BME280;3098;42.678;23.364;2023-02-04T05:33:17;94506.19;;;1.74;100.00
6134;BME280;3098;42.678;23.364;2023-02-04T05:35:45;94474.19;;;2.23;100.00
6134;BME280;3098;42.678;23.364;2023-02-04T05:38:12;94475.69;;;2.49;100.00
6134;BME280;3098;42.678;23.364;2023-02-04T05:40:39;94478.00;;;2.61;100.00
6134;BME280;3098;42.678;23.364;2023-02-04T05:43:06;94476.16;;;2.66;100.00
6134;BME280;3098;42.678;23.364;2023-02-04T05:45:34;94445.06;;;2.55;100.00
6134;BME280;3098;42.678;23.364;2023-02-04T05:48:01;94458.59;;;2.67;100.00
6134;BME280;3098;42.678;23.364;2023-02-04T05:50:28;94463.28;;;2.70;100.00
6134;BME280;3098;42.678;23.364;2023-02-04T05:52:57;94419.16;;;2.48;100.00
6134;BME280;3098;42.678;23.364;2023-02-04T05:55:25;94465.09;;;2.79;100.00
6134;BME280;3098;42.678;23.364;2023-02-04T05:57:52;94386.22;;;2.37;100.00
6134;BME280;3098;42.678;23.364;2023-02-04T06:00:19;94447.59;;;2.75;100.00
6134;BME280;3098;42.678;23.364;2023-02-04T06:02:47;94420.53;;;2.30;100.00
6134;BME280;3098;42.678;23.364;2023-02-04T06:05:14;94467.00;;;2.64;100.00
6134;BME280;3098;42.678;23.364;2023-02-04T06:07:41;94439.53;;;2.56;100.00
6134;BME280;3098;42.678;23.364;2023-02-04T06:10:11;94421.53;;;2.45;100.00
6134;BME280;3098;42.678;23.364;2023-02-04T06:12:39;94397.47;;;2.43;100.00
6134;BME280;3098;42.678;23.364;2023-02-04T06:15:07;94358.03;;;2.24;100.00
6134;BME280;3098;42.678;23.364;2023-02-04T06:17:35;94420.63;;;2.69;100.00
6134;BME280;3098;42.678;23.364;2023-02-04T06:20:03;94456.84;;;3.01;100.00
6134;BME280;3098;42.678;23.364;2023-02-04T06:22:31;94381.44;;;2.54;100.00
6134;BME280;3098;42.678;23.364;2023-02-04T06:24:58;94467.69;;;3.28;100.00
6134;BME280;3098;42.678;23.364;2023-02-04T06:27:28;94426.66;;;3.14;100.00
6134;BME280;3098;42.678;23.364;2023-02-04T06:29:55;94467.88;;;3.42;100.00
6134;BME280;3098;42.678;23.364;2023-02-04T06:32:22;94383.34;;;2.87;100.00
6134;BME280;3098;42.678;23.364;2023-02-04T06:34:51;94433.97;;;3.17;100.00
6134;BME280;3098;42.678;23.364;2023-02-04T06:37:23;94455.03;;;3.40;100.00
6134;BME280;3098;42.678;23.364;2023-02-04T06:39:50;94418.75;;;3.19;100.00
6134;BME280;3098;42.678;23.364;2023-02-04T06:42:19;94467.91;;;3.37;100.00
6134;BME280;3098;42.678;23.364;2023-02-04T06:44:47;94379.22;;;2.76;100.00
6134;BME280;3098;42.678;23.364;2023-02-04T06:47:15;94431.06;;;3.18;100.00
6134;BME280;3098;42.678;23.364;2023-02-04T06:49:44;94437.03;;;3.29;100.00
6134;BME280;3098;42.678;23.364;2023-02-04T06:52:13;94465.34;;;3.61;100.00
6134;BME280;3098;42.678;23.364;2023-02-04T06:54:42;94325.16;;;2.57;100.00
6134;BME280;3098;42.678;23.364;2023-02-04T06:57:11;94269.13;;;2.53;99.77
6134;BME280;3098;42.678;23.364;2023-02-04T06:59:39;94450.09;;;3.68;99.20
6134;BME280;3098;42.678;23.364;2023-02-04T07:02:15;94446.16;;;3.70;98.87
6134;BME280;3098;42.678;23.364;2023-02-04T07:04:43;94359.69;;;3.31;98.68
6134;BME280;3098;42.678;23.364;2023-02-04T07:07:10;94444.66;;;4.64;96.43
6134;BME280;3098;42.678;23.364;2023-02-04T07:09:37;94439.50;;;5.34;91.76
6134;BME280;3098;42.678;23.364;2023-02-04T07:12:05;94416.41;;;6.41;85.57
6134;BME280;3098;42.678;23.364;2023-02-04T07:14:33;94432.88;;;7.90;76.81
6134;BME280;3098;42.678;23.364;2023-02-04T07:17:00;94299.78;;;7.29;76.94
6134;BME280;3098;42.678;23.364;2023-02-04T07:19:29;94449.16;;;9.66;70.54
6134;BME280;3098;42.678;23.364;2023-02-04T07:21:56;94415.28;;;10.06;61.36
6134;BME280;3098;42.678;23.364;2023-02-04T07:24:23;94414.13;;;10.71;58.62
6134;BME280;3098;42.678;23.364;2023-02-04T07:26:51;94430.84;;;10.08;60.14
6134;BME280;3098;42.678;23.364;2023-02-04T07:29:19;94440.75;;;9.73;59.52
6134;BME280;3098;42.678;23.364;2023-02-04T07:31:50;94384.13;;;8.66;62.39
6134;BME280;3098;42.678;23.364;2023-02-04T07:34:18;94439.97;;;9.72;58.76
6134;BME280;3098;42.678;23.364;2023-02-04T07:36:47;94396.53;;;9.56;58.24
6134;BME280;3098;42.678;23.364;2023-02-04T07:39:15;94441.34;;;10.51;56.32
6134;BME280;3098;42.678;23.364;2023-02-04T07:41:43;94433.53;;;10.92;54.22
6134;BME280;3098;42.678;23.364;2023-02-04T07:44:14;94398.13;;;10.21;54.96
6134;BME280;3098;42.678;23.364;2023-02-04T07:46:42;94402.28;;;9.41;55.53
6134;BME280;3098;42.678;23.364;2023-02-04T07:49:09;94440.34;;;8.97;59.92
6134;BME280;3098;42.678;23.364;2023-02-04T07:51:36;94447.13;;;9.72;57.87
6134;BME280;3098;42.678;23.364;2023-02-04T07:54:06;94397.31;;;10.67;53.28
6134;BME280;3098;42.678;23.364;2023-02-04T07:56:33;94427.63;;;11.16;52.35
6134;BME280;3098;42.678;23.364;2023-02-04T07:59:03;94311.66;;;11.82;49.42
6134;BME280;3098;42.678;23.364;2023-02-04T08:01:31;94432.38;;;11.31;49.97
6134;BME280;3098;42.678;23.364;2023-02-04T08:04:02;94350.28;;;10.76;50.68
6134;BME280;3098;42.678;23.364;2023-02-04T08:06:30;94438.78;;;10.25;52.08
6134;BME280;3098;42.678;23.364;2023-02-04T08:08:57;94432.25;;;8.77;56.99
6134;BME280;3098;42.678;23.364;2023-02-04T08:11:26;94430.44;;;8.55;59.20
6134;BME280;3098;42.678;23.364;2023-02-04T08:13:53;94319.41;;;7.37;60.73
6134;BME280;3098;42.678;23.364;2023-02-04T08:16:21;94441.34;;;7.78;62.72
6134;BME280;3098;42.678;23.364;2023-02-04T08:18:49;94360.00;;;6.42;67.04
6134;BME280;3098;42.678;23.364;2023-02-04T08:21:18;94215.13;;;5.52;68.59
6134;BME280;3098;42.678;23.364;2023-02-04T08:23:46;94442.16;;;6.44;71.02
6134;BME280;3098;42.678;23.364;2023-02-04T08:26:13;94438.63;;;6.35;73.64
6134;BME280;3098;42.678;23.364;2023-02-04T08:28:42;94439.56;;;5.98;75.45
6134;BME280;3098;42.678;23.364;2023-02-04T08:31:10;94432.81;;;5.73;77.50
6134;BME280;3098;42.678;23.364;2023-02-04T08:33:39;94398.34;;;5.75;77.79
6134;BME280;3098;42.678;23.364;2023-02-04T08:36:06;94445.41;;;5.76;79.03
6134;BME280;3098;42.678;23.364;2023-02-04T08:38:34;94430.19;;;5.73;81.31
6134;BME280;3098;42.678;23.364;2023-02-04T08:41:01;94400.31;;;5.51;81.47
6134;BME280;3098;42.678;23.364;2023-02-04T08:43:29;94430.72;;;5.75;82.63
6134;BME280;3098;42.678;23.364;2023-02-04T08:45:57;94433.00;;;5.63;81.64
6134;BME280;3098;42.678;23.364;2023-02-04T08:48:26;94366.38;;;5.36;81.47
6134;BME280;3098;42.678;23.364;2023-02-04T08:50:54;94428.63;;;5.91;80.59
6134;BME280;3098;42.678;23.364;2023-02-04T08:53:22;94435.63;;;5.63;80.53
6134;BME280;3098;42.678;23.364;2023-02-04T08:55:50;94426.38;;;5.66;82.37
6134;BME280;3098;42.678;23.364;2023-02-04T08:58:18;94428.31;;;5.60;83.21
6134;BME280;3098;42.678;23.364;2023-02-04T09:00:46;94428.44;;;5.69;83.19
6134;BME280;3098;42.678;23.364;2023-02-04T09:03:15;94440.22;;;5.71;83.50
6134;BME280;3098;42.678;23.364;2023-02-04T09:05:42;94398.78;;;4.94;85.47
6134;BME280;3098;42.678;23.364;2023-02-04T09:08:10;94428.00;;;5.30;86.95
6134;BME280;3098;42.678;23.364;2023-02-04T09:10:38;94442.91;;;5.53;87.16
6134;BME280;3098;42.678;23.364;2023-02-04T09:13:08;94429.63;;;5.44;86.81
6134;BME280;3098;42.678;23.364;2023-02-04T09:15:41;94396.38;;;4.97;87.65
6134;BME280;3098;42.678;23.364;2023-02-04T09:18:17;94430.56;;;5.16;88.28
6134;BME280;3098;42.678;23.364;2023-02-04T09:20:47;94384.63;;;5.13;87.77
6134;BME280;3098;42.678;23.364;2023-02-04T09:23:16;94355.00;;;4.89;87.02
6134;BME280;3098;42.678;23.364;2023-02-04T09:25:45;94415.25;;;5.37;86.61
6134;BME280;3098;42.678;23.364;2023-02-04T09:28:13;94412.69;;;5.50;84.97
6134;BME280;3098;42.678;23.364;2023-02-04T09:30:42;94384.34;;;5.47;83.92
6134;BME280;3098;42.678;23.364;2023-02-04T09:33:12;94239.88;;;4.59;81.63
6134;BME280;3098;42.678;23.364;2023-02-04T09:35:43;94163.13;;;3.92;80.97
6134;BME280;3098;42.678;23.364;2023-02-04T09:38:10;94359.47;;;5.40;81.75
6134;BME280;3098;42.678;23.364;2023-02-04T09:40:42;94259.78;;;4.79;81.72
6134;BME280;3098;42.678;23.364;2023-02-04T09:43:13;94367.53;;;5.30;85.15
6134;BME280;3098;42.678;23.364;2023-02-04T09:45:43;94407.00;;;5.43;88.17
6134;BME280;3098;42.678;23.364;2023-02-04T09:48:12;94401.28;;;5.04;93.49
6134;BME280;3098;42.678;23.364;2023-02-04T09:50:42;94393.31;;;4.72;96.83
6134;BME280;3098;42.678;23.364;2023-02-04T09:53:13;94400.78;;;4.64;99.79
6134;BME280;3098;42.678;23.364;2023-02-04T09:55:44;94413.66;;;4.85;100.00
6134;BME280;3098;42.678;23.364;2023-02-04T09:58:13;94405.63;;;4.95;100.00
6134;BME280;3098;42.678;23.364;2023-02-04T10:00:42;94366.28;;;4.71;100.00
6134;BME280;3098;42.678;23.364;2023-02-04T10:03:14;94371.09;;;4.64;100.00
6134;BME280;3098;42.678;23.364;2023-02-04T10:05:45;94362.28;;;4.55;100.00
6134;BME280;3098;42.678;23.364;2023-02-04T10:08:14;94388.22;;;4.80;100.00
6134;BME280;3098;42.678;23.364;2023-02-04T10:10:44;94386.66;;;4.60;100.00
6134;BME280;3098;42.678;23.364;2023-02-04T10:13:15;94354.91;;;4.57;100.00
6134;BME280;3098;42.678;23.364;2023-02-04T10:15:44;94306.13;;;4.14;100.00
6134;BME280;3098;42.678;23.364;2023-02-04T10:18:18;94357.53;;;4.57;100.00
6134;BME280;3098;42.678;23.364;2023-02-04T10:20:52;94331.72;;;4.45;100.00
6134;BME280;3098;42.678;23.364;2023-02-04T10:23:21;94324.59;;;4.46;100.00
6134;BME280;3098;42.678;23.364;2023-02-04T10:25:49;94334.19;;;4.55;100.00
6134;BME280;3098;42.678;23.364;2023-02-04T10:28:17;94313.88;;;4.61;100.00
6134;BME280;3098;42.678;23.364;2023-02-04T10:30:44;94357.00;;;4.79;100.00
6134;BME280;3098;42.678;23.364;2023-02-04T10:33:14;94280.59;;;4.19;100.00
6134;BME280;3098;42.678;23.364;2023-02-04T10:35:45;94310.34;;;4.71;100.00
6134;BME280;3098;42.678;23.364;2023-02-04T10:38:15;94315.19;;;4.82;100.00
6134;BME280;3098;42.678;23.364;2023-02-04T10:40:42;94296.69;;;4.87;100.00
6134;BME280;3098;42.678;23.364;2023-02-04T10:43:15;94322.50;;;4.85;100.00
6134;BME280;3098;42.678;23.364;2023-02-04T10:45:45;94350.72;;;5.12;100.00
6134;BME280;3098;42.678;23.364;2023-02-04T10:48:15;94352.56;;;5.11;100.00
6134;BME280;3098;42.678;23.364;2023-02-04T10:50:44;94323.72;;;5.06;100.00
6134;BME280;3098;42.678;23.364;2023-02-04T10:53:17;94345.84;;;5.38;100.00
6134;BME280;3098;42.678;23.364;2023-02-04T10:56:02;94345.59;;;5.20;100.00
6134;BME280;3098;42.678;23.364;2023-02-04T10:58:31;94252.94;;;4.27;100.00
6134;BME280;3098;42.678;23.364;2023-02-04T11:00:58;94294.00;;;4.55;100.00
6134;BME280;3098;42.678;23.364;2023-02-04T11:03:28;94129.16;;;3.45;100.00
6134;BME280;3098;42.678;23.364;2023-02-04T11:05:57;94339.34;;;5.16;100.00
6134;BME280;3098;42.678;23.364;2023-02-04T11:08:28;94329.53;;;5.22;100.00
6134;BME280;3098;42.678;23.364;2023-02-04T11:10:58;94283.47;;;4.92;100.00
6134;BME280;3098;42.678;23.364;2023-02-04T11:13:38;94328.00;;;5.35;100.00
6134;BME280;3098;42.678;23.364;2023-02-04T11:16:12;94324.75;;;5.24;100.00
6134;BME280;3098;42.678;23.364;2023-02-04T11:18:53;94257.53;;;5.04;100.00
6134;BME280;3098;42.678;23.364;2023-02-04T11:21:25;94328.56;;;5.32;100.00
6134;BME280;3098;42.678;23.364;2023-02-04T11:24:19;94146.25;;;4.17;100.00
6134;BME280;3098;42.678;23.364;2023-02-04T11:26:48;94321.09;;;5.39;100.00
6134;BME280;3098;42.678;23.364;2023-02-04T11:29:29;94285.66;;;5.36;100.00
6134;BME280;3098;42.678;23.364;2023-02-04T11:32:27;94282.66;;;5.10;100.00
6134;BME280;3098;42.678;23.364;2023-02-04T11:37:47;94295.84;;;4.92;100.00
6134;BME280;3098;42.678;23.364;2023-02-04T11:40:27;94254.22;;;4.48;100.00
6134;BME280;3098;42.678;23.364;2023-02-04T11:42:56;94270.16;;;4.33;100.00
6134;BME280;3098;42.678;23.364;2023-02-04T11:45:27;94333.31;;;4.97;100.00
6134;BME280;3098;42.678;23.364;2023-02-04T11:47:58;94105.19;;;3.33;100.00
6134;BME280;3098;42.678;23.364;2023-02-04T11:50:28;94339.38;;;4.79;100.00
6134;BME280;3098;42.678;23.364;2023-02-04T11:52:58;94318.09;;;4.62;100.00
6134;BME280;3098;42.678;23.364;2023-02-04T11:55:29;94328.38;;;4.58;100.00
6134;BME280;3098;42.678;23.364;2023-02-04T11:57:58;94331.06;;;4.72;100.00
6134;BME280;3098;42.678;23.364;2023-02-04T12:00:28;94280.66;;;4.70;100.00
6134;BME280;3098;42.678;23.364;2023-02-04T12:02:58;94315.53;;;4.76;100.00
6134;BME280;3098;42.678;23.364;2023-02-04T12:05:38;94338.31;;;4.99;100.00
6134;BME280;3098;42.678;23.364;2023-02-04T12:08:12;94323.09;;;4.77;100.00
6134;BME280;3098;42.678;23.364;2023-02-04T12:10:47;94260.66;;;4.18;100.00
6134;BME280;3098;42.678;23.364;2023-02-04T12:13:17;94214.66;;;3.83;100.00
6134;BME280;3098;42.678;23.364;2023-02-04T12:15:53;94225.13;;;3.88;100.00
6134;BME280;3098;42.678;23.364;2023-02-04T12:18:22;94320.84;;;4.52;100.00
6134;BME280;3098;42.678;23.364;2023-02-04T12:20:49;94304.44;;;4.60;100.00
6134;BME280;3098;42.678;23.364;2023-02-04T12:23:17;94316.72;;;4.46;100.00
6134;BME280;3098;42.678;23.364;2023-02-04T12:25:46;94200.47;;;3.66;100.00
6134;BME280;3098;42.678;23.364;2023-02-04T12:28:14;94318.69;;;4.35;100.00
6134;BME280;3098;42.678;23.364;2023-02-04T12:30:41;94235.72;;;3.78;100.00
6134;BME280;3098;42.678;23.364;2023-02-04T12:33:09;94315.63;;;4.10;100.00
6134;BME280;3098;42.678;23.364;2023-02-04T12:35:37;94280.97;;;3.89;100.00
6134;BME280;3098;42.678;23.364;2023-02-04T12:38:05;94306.84;;;4.19;100.00
6134;BME280;3098;42.678;23.364;2023-02-04T12:40:33;94304.22;;;4.19;100.00
6134;BME280;3098;42.678;23.364;2023-02-04T12:43:02;94238.69;;;3.72;100.00
6134;BME280;3098;42.678;23.364;2023-02-04T12:45:30;94304.06;;;4.11;100.00
6134;BME280;3098;42.678;23.364;2023-02-04T12:47:59;94314.78;;;4.14;100.00
6134;BME280;3098;42.678;23.364;2023-02-04T12:50:27;94248.66;;;3.93;100.00
6134;BME280;3098;42.678;23.364;2023-02-04T12:52:56;94283.50;;;4.18;100.00
6134;BME280;3098;42.678;23.364;2023-02-04T12:55:25;94298.25;;;4.32;100.00
6134;BME280;3098;42.678;23.364;2023-02-04T12:57:53;94312.63;;;4.40;100.00
6134;BME280;3098;42.678;23.364;2023-02-04T13:00:24;94296.28;;;4.43;100.00
6134;BME280;3098;42.678;23.364;2023-02-04T13:02:52;94221.84;;;3.96;100.00
6134;BME280;3098;42.678;23.364;2023-02-04T13:05:23;94290.56;;;4.59;100.00
6134;BME280;3098;42.678;23.364;2023-02-04T13:07:51;94290.47;;;4.64;100.00
6134;BME280;3098;42.678;23.364;2023-02-04T13:10:19;94230.25;;;4.17;100.00
6134;BME280;3098;42.678;23.364;2023-02-04T13:12:48;94267.69;;;4.41;100.00
6134;BME280;3098;42.678;23.364;2023-02-04T13:15:16;94307.66;;;4.76;100.00
6134;BME280;3098;42.678;23.364;2023-02-04T13:17:46;94239.03;;;4.26;100.00
6134;BME280;3098;42.678;23.364;2023-02-04T13:20:15;94310.84;;;4.54;100.00
6134;BME280;3098;42.678;23.364;2023-02-04T13:22:43;94294.72;;;4.42;100.00